Odin Finder — IZER — position and weather

sailwx.info

Track history (hours):
 
Tides and Currents Weather Stations Pressure Air Temp Water Temp Dewpoint Dewpoint Depression Visibility Wind Speed Wind Dir Waves Ship Positions

Odin Finder

Last reported at 2016-Sep-30 16:31 UTC. Time now 2016-Sep-30 16:53 UTC.
Position N 37°06' E 013°56'.

Length 46 m; draft 4.9 m.

Type: Ship. MMSI: 247048200.

Date/timePositionNaut miles runAvg speedWind from/ knotsBaromVisibWave heightAir tempDewpointWater temp
2016-Sep-30 16:31N 37°06' E 013°56'0 0.0
2016-Sep-30 14:31N 37°06' E 013°56'0 0.0
2016-Sep-30 13:31N 37°06' E 013°56'0 0.0
2016-Sep-30 10:31N 37°06' E 013°56'0 0.0
2016-Sep-30 08:31N 37°06' E 013°56'0 0.0
2016-Sep-30 06:31N 37°06' E 013°56'0 0.0
2016-Sep-30 03:31N 37°06' E 013°56'0 0.0
2016-Sep-30 02:31N 37°06' E 013°56'0 0.0
2016-Sep-29 23:31N 37°06' E 013°56'0 0.0
2016-Sep-29 21:31N 37°06' E 013°56'0 0.0
2016-Sep-29 20:31N 37°06' E 013°56'0 0.0
2016-Sep-29 19:31N 37°06' E 013°56'0 0.0
2016-Sep-29 16:31N 37°06' E 013°56'0 0.0
2016-Sep-29 15:33N 37°06' E 013°56'1 1.2
2016-Sep-29 14:33N 37°05' E 013°56'4 3.6
2016-Sep-29 13:33N 37°05' E 013°51'83 4.6
2016-Sep-28 19:33N 38°16' E 012°57'13 4.5
2016-Sep-28 16:33N 38°17' E 013°14'8 8.1
2016-Sep-28 15:33N 38°15' E 013°24'8 2.5
2016-Sep-28 12:33N 38°07' E 013°23'0 0.0
2016-Sep-28 08:33N 38°07' E 013°23'0 0.0
2016-Sep-28 03:33N 38°07' E 013°23'0 0.0
2016-Sep-28 02:33N 38°07' E 013°23'0 0.0
2016-Sep-28 01:33N 38°07' E 013°23'0 0.0
2016-Sep-27 23:33N 38°07' E 013°23'0 0.0
2016-Sep-27 19:33N 38°07' E 013°23'0 0.0
2016-Sep-27 14:33N 38°07' E 013°23'0 0.0
2016-Sep-27 13:33N 38°07' E 013°23'0 0.0
2016-Sep-27 10:24N 38°07' E 013°23'0 0.0
2016-Sep-27 00:33N 38°07' E 013°23'0 0.0
2016-Sep-26 20:33N 38°07' E 013°23'0 0.0
2016-Sep-26 19:33N 38°07' E 013°23'0 0.0
2016-Sep-26 15:33N 38°07' E 013°23'0 0.0
2016-Sep-26 13:33N 38°07' E 013°23'0 0.0
2016-Sep-26 11:33N 38°07' E 013°23'0 0.0
2016-Sep-26 08:33N 38°07' E 013°23'0 0.0
2016-Sep-26 02:33N 38°07' E 013°23'0 0.0
2016-Sep-26 01:33N 38°07' E 013°23'0 0.0
2016-Sep-26 00:33N 38°07' E 013°23'0 0.0
2016-Sep-25 21:33N 38°07' E 013°23'0 0.0
2016-Sep-25 17:30N 38°07' E 013°23'0 0.0
2016-Sep-25 16:33N 38°07' E 013°23'0 0.0
2016-Sep-25 15:33N 38°07' E 013°23'0 0.0
2016-Sep-25 14:33N 38°07' E 013°23'0 0.0
2016-Sep-25 12:33N 38°07' E 013°23'0 0.0
2016-Sep-25 11:33N 38°07' E 013°23'0 0.0
2016-Sep-25 10:33N 38°07' E 013°23'0 0.0
2016-Sep-25 09:33N 38°07' E 013°23'0 0.0
2016-Sep-25 07:33N 38°07' E 013°23'0 0.0
2016-Sep-25 04:33N 38°07' E 013°23'0 0.0
2016-Sep-25 00:33N 38°07' E 013°23'0 0.0
2016-Sep-24 22:33N 38°07' E 013°23'0 0.0
2016-Sep-24 21:33N 38°07' E 013°23'0 0.0
2016-Sep-24 19:33N 38°07' E 013°23'0 0.0
2016-Sep-24 18:33N 38°07' E 013°23'0 0.0
2016-Sep-24 17:33N 38°07' E 013°23'0 0.0
2016-Sep-24 16:33N 38°07' E 013°23'0 0.0
2016-Sep-24 14:33N 38°07' E 013°23'0 0.0
2016-Sep-24 12:33N 38°07' E 013°23'0 0.0
2016-Sep-24 10:33N 38°07' E 013°23'0 0.0
2016-Sep-24 09:33N 38°07' E 013°23'0 0.0
2016-Sep-24 03:33N 38°07' E 013°23'0 0.0
2016-Sep-24 02:33N 38°07' E 013°23'0 0.0
2016-Sep-24 01:33N 38°07' E 013°23'0 0.0
2016-Sep-24 00:33N 38°07' E 013°23'0 0.0
2016-Sep-23 19:33N 38°07' E 013°23'0 0.0
2016-Sep-23 17:33N 38°07' E 013°23'0 0.0
2016-Sep-23 16:33N 38°07' E 013°23'0 0.0
2016-Sep-23 15:33N 38°07' E 013°23'0 0.0
2016-Sep-23 13:33N 38°07' E 013°23'0 0.0
2016-Sep-23 09:33N 38°07' E 013°23'0 0.0
2016-Sep-23 06:33N 38°07' E 013°23'0 0.0
2016-Sep-23 04:33N 38°07' E 013°23'0 0.0
2016-Sep-23 03:33N 38°07' E 013°23'0 0.0
2016-Sep-23 02:33N 38°07' E 013°23'0 0.0
2016-Sep-23 01:33N 38°07' E 013°23'0 0.0
2016-Sep-23 00:33N 38°07' E 013°23'0 0.0
2016-Sep-22 23:33N 38°07' E 013°23'0 0.0
2016-Sep-22 20:33N 38°07' E 013°23'0 0.0
2016-Sep-22 12:33N 38°07' E 013°23'0 0.0
2016-Sep-22 04:33N 38°07' E 013°23'0 0.0
2016-Sep-22 03:33N 38°07' E 013°23'0 0.0
2016-Sep-22 00:33N 38°07' E 013°23'0 0.0
2016-Sep-21 23:33N 38°07' E 013°23'0 0.0
2016-Sep-21 22:33N 38°07' E 013°23'0 0.0
2016-Sep-21 19:33N 38°07' E 013°23'0 0.0
2016-Sep-21 16:33N 38°07' E 013°23'0 0.0
2016-Sep-21 09:33N 38°07' E 013°23'0 0.0
2016-Sep-21 08:33N 38°07' E 013°23'0 0.0
2016-Sep-21 05:33N 38°07' E 013°23'0 0.0
2016-Sep-21 03:33N 38°07' E 013°23'0 0.0
2016-Sep-21 02:33N 38°07' E 013°23'0 0.0
2016-Sep-20 17:33N 38°07' E 013°23'  
Track history (hours):
 
Tides and Currents Weather Stations Pressure Air Temp Water Temp Dewpoint Dewpoint Depression Visibility Wind Speed Wind Dir Waves Ship Positions

Odin Finder

Last reported at 2016-Sep-30 16:31 UTC. Time now 2016-Sep-30 16:53 UTC.
Position N 37°06' E 013°56'.

Length 46 m; draft 4.9 m.

Type: Ship. MMSI: 247048200.

Date/timePositionNaut miles runAvg speedWind from/ knotsBaromVisibWave heightAir tempDewpointWater temp
2016-Sep-30 16:31N 37°06' E 013°56'0 0.0
2016-Sep-30 14:31N 37°06' E 013°56'0 0.0
2016-Sep-30 13:31N 37°06' E 013°56'0 0.0
2016-Sep-30 10:31N 37°06' E 013°56'0 0.0
2016-Sep-30 08:31N 37°06' E 013°56'0 0.0
2016-Sep-30 06:31N 37°06' E 013°56'0 0.0
2016-Sep-30 03:31N 37°06' E 013°56'0 0.0
2016-Sep-30 02:31N 37°06' E 013°56'0 0.0
2016-Sep-29 23:31N 37°06' E 013°56'0 0.0
2016-Sep-29 21:31N 37°06' E 013°56'0 0.0
2016-Sep-29 20:31N 37°06' E 013°56'0 0.0
2016-Sep-29 19:31N 37°06' E 013°56'0 0.0
2016-Sep-29 16:31N 37°06' E 013°56'0 0.0
2016-Sep-29 15:33N 37°06' E 013°56'1 1.2
2016-Sep-29 14:33N 37°05' E 013°56'4 3.6
2016-Sep-29 13:33N 37°05' E 013°51'83 4.6
2016-Sep-28 19:33N 38°16' E 012°57'13 4.5
2016-Sep-28 16:33N 38°17' E 013°14'8 8.1
2016-Sep-28 15:33N 38°15' E 013°24'8 2.5
2016-Sep-28 12:33N 38°07' E 013°23'0 0.0
2016-Sep-28 08:33N 38°07' E 013°23'0 0.0
2016-Sep-28 03:33N 38°07' E 013°23'0 0.0
2016-Sep-28 02:33N 38°07' E 013°23'0 0.0
2016-Sep-28 01:33N 38°07' E 013°23'0 0.0
2016-Sep-27 23:33N 38°07' E 013°23'0 0.0
2016-Sep-27 19:33N 38°07' E 013°23'0 0.0
2016-Sep-27 14:33N 38°07' E 013°23'0 0.0
2016-Sep-27 13:33N 38°07' E 013°23'0 0.0
2016-Sep-27 10:24N 38°07' E 013°23'0 0.0
2016-Sep-27 00:33N 38°07' E 013°23'0 0.0
2016-Sep-26 20:33N 38°07' E 013°23'0 0.0
2016-Sep-26 19:33N 38°07' E 013°23'0 0.0
2016-Sep-26 15:33N 38°07' E 013°23'0 0.0
2016-Sep-26 13:33N 38°07' E 013°23'0 0.0
2016-Sep-26 11:33N 38°07' E 013°23'0 0.0
2016-Sep-26 08:33N 38°07' E 013°23'0 0.0
2016-Sep-26 02:33N 38°07' E 013°23'0 0.0
2016-Sep-26 01:33N 38°07' E 013°23'0 0.0
2016-Sep-26 00:33N 38°07' E 013°23'0 0.0
2016-Sep-25 21:33N 38°07' E 013°23'0 0.0
2016-Sep-25 17:30N 38°07' E 013°23'0 0.0
2016-Sep-25 16:33N 38°07' E 013°23'0 0.0
2016-Sep-25 15:33N 38°07' E 013°23'0 0.0
2016-Sep-25 14:33N 38°07' E 013°23'0 0.0
2016-Sep-25 12:33N 38°07' E 013°23'0 0.0
2016-Sep-25 11:33N 38°07' E 013°23'0 0.0
2016-Sep-25 10:33N 38°07' E 013°23'0 0.0
2016-Sep-25 09:33N 38°07' E 013°23'0 0.0
2016-Sep-25 07:33N 38°07' E 013°23'0 0.0
2016-Sep-25 04:33N 38°07' E 013°23'0 0.0
2016-Sep-25 00:33N 38°07' E 013°23'0 0.0
2016-Sep-24 22:33N 38°07' E 013°23'0 0.0
2016-Sep-24 21:33N 38°07' E 013°23'0 0.0
2016-Sep-24 19:33N 38°07' E 013°23'0 0.0
2016-Sep-24 18:33N 38°07' E 013°23'0 0.0
2016-Sep-24 17:33N 38°07' E 013°23'0 0.0
2016-Sep-24 16:33N 38°07' E 013°23'0 0.0
2016-Sep-24 14:33N 38°07' E 013°23'0 0.0
2016-Sep-24 12:33N 38°07' E 013°23'0 0.0
2016-Sep-24 10:33N 38°07' E 013°23'0 0.0
2016-Sep-24 09:33N 38°07' E 013°23'0 0.0
2016-Sep-24 03:33N 38°07' E 013°23'0 0.0
2016-Sep-24 02:33N 38°07' E 013°23'0 0.0
2016-Sep-24 01:33N 38°07' E 013°23'0 0.0
2016-Sep-24 00:33N 38°07' E 013°23'0 0.0
2016-Sep-23 19:33N 38°07' E 013°23'0 0.0
2016-Sep-23 17:33N 38°07' E 013°23'0 0.0
2016-Sep-23 16:33N 38°07' E 013°23'0 0.0
2016-Sep-23 15:33N 38°07' E 013°23'0 0.0
2016-Sep-23 13:33N 38°07' E 013°23'0 0.0
2016-Sep-23 09:33N 38°07' E 013°23'0 0.0
2016-Sep-23 06:33N 38°07' E 013°23'0 0.0
2016-Sep-23 04:33N 38°07' E 013°23'0 0.0
2016-Sep-23 03:33N 38°07' E 013°23'0 0.0
2016-Sep-23 02:33N 38°07' E 013°23'0 0.0
2016-Sep-23 01:33N 38°07' E 013°23'0 0.0
2016-Sep-23 00:33N 38°07' E 013°23'0 0.0
2016-Sep-22 23:33N 38°07' E 013°23'0 0.0
2016-Sep-22 20:33N 38°07' E 013°23'0 0.0
2016-Sep-22 12:33N 38°07' E 013°23'0 0.0
2016-Sep-22 04:33N 38°07' E 013°23'0 0.0
2016-Sep-22 03:33N 38°07' E 013°23'0 0.0
2016-Sep-22 00:33N 38°07' E 013°23'0 0.0
2016-Sep-21 23:33N 38°07' E 013°23'0 0.0
2016-Sep-21 22:33N 38°07' E 013°23'0 0.0
2016-Sep-21 19:33N 38°07' E 013°23'0 0.0
2016-Sep-21 16:33N 38°07' E 013°23'0 0.0
2016-Sep-21 09:33N 38°07' E 013°23'0 0.0
2016-Sep-21 08:33N 38°07' E 013°23'0 0.0
2016-Sep-21 05:33N 38°07' E 013°23'0 0.0
2016-Sep-21 03:33N 38°07' E 013°23'0 0.0
2016-Sep-21 02:33N 38°07' E 013°23'0 0.0
2016-Sep-20 17:33N 38°07' E 013°23'  

Dump ship's entire track history